Time;durP1;ratioP1;P1;durP2;ratioP2;P2;SDS_P1;SDS_P2;PMS_P1;PMS_P2;Temp;Humidity;BMP_temperature;BMP_pressure;BME280_temperature;BME280_humidity;BME280_pressure;Samples;Min_cycle;Max_cycle;Signal;HPM_P1;HPM_P2
2021/06/14 00:02:07;;;;;;;4.97;3.15;;;;;;;15.14;72.37;102457.16;5133094;27;20062;-52
2021/06/14 00:04:37;;;;;;;10.73;5.28;;;;;;;15.18;72.53;102458.25;5132958;27;20440;-50
2021/06/14 00:07:05;;;;;;;11.15;5.47;;;;;;;15.24;72.61;102447.78;5133085;27;20586;-53
2021/06/14 00:09:33;;;;;;;8.50;4.97;;;;;;;15.31;72.71;102448.31;5121279;27;20500;-54
2021/06/14 00:12:03;;;;;;;8.48;5.10;;;;;;;15.35;72.93;102439.00;5120157;27;20472;-51
2021/06/14 00:14:31;;;;;;;10.60;5.15;;;;;;;15.41;72.72;102432.19;5131085;27;20049;-52
2021/06/14 00:16:58;;;;;;;7.18;4.60;;;;;;;15.46;72.75;102437.78;5131910;27;20039;-51
2021/06/14 00:19:26;;;;;;;10.27;4.75;;;;;;;15.48;72.93;102435.50;5133039;27;20047;-47
2021/06/14 00:21:56;;;;;;;8.95;4.78;;;;;;;15.51;72.80;102434.09;5132641;27;20054;-51
2021/06/14 00:24:24;;;;;;;13.35;5.28;;;;;;;15.54;72.92;102421.41;5131928;27;20043;-47
2021/06/14 00:26:52;;;;;;;9.65;4.78;;;;;;;15.56;72.82;102428.44;5132420;27;20055;-50
2021/06/14 00:29:19;;;;;;;7.55;4.05;;;;;;;15.56;73.02;102422.81;5132339;27;20096;-49
2021/06/14 00:31:47;;;;;;;12.38;5.00;;;;;;;15.58;72.95;102417.75;5131873;27;20078;-55
2021/06/14 00:34:18;;;;;;;10.45;4.70;;;;;;;15.59;72.97;102413.78;5132638;27;20059;-50
2021/06/14 00:36:46;;;;;;;8.55;4.25;;;;;;;15.60;72.93;102397.72;5131455;27;20047;-49
2021/06/14 00:39:15;;;;;;;6.95;3.92;;;;;;;15.61;73.01;102393.78;5120724;27;20035;-48
2021/06/14 00:41:43;;;;;;;9.73;4.43;;;;;;;15.61;73.13;102391.81;5118558;27;20073;-48
2021/06/14 00:44:11;;;;;;;8.35;4.00;;;;;;;15.65;73.05;102386.44;5112089;27;20067;-50
2021/06/14 00:46:40;;;;;;;8.68;5.03;;;;;;;15.66;73.08;102385.28;5128965;27;20043;-50
2021/06/14 00:49:07;;;;;;;8.85;4.82;;;;;;;15.67;73.18;102386.97;5132163;27;20051;-51
2021/06/14 00:51:36;;;;;;;10.65;3.90;;;;;;;15.67;73.31;102382.19;5115867;27;20053;-51
2021/06/14 00:54:06;;;;;;;8.05;3.95;;;;;;;15.67;73.20;102382.19;5122893;27;20130;-47
2021/06/14 00:56:36;;;;;;;8.48;3.58;;;;;;;15.68;73.11;102380.22;5128600;27;20120;-49
2021/06/14 00:59:04;;;;;;;8.38;4.47;;;;;;;15.66;73.35;102382.47;5114258;27;20057;-50
2021/06/14 01:01:32;;;;;;;9.20;4.57;;;;;;;15.66;73.32;102379.66;5132060;27;20032;-51
2021/06/14 01:04:03;;;;;;;8.37;4.07;;;;;;;15.64;73.47;102370.69;5114831;27;20065;-55
2021/06/14 01:06:33;;;;;;;5.78;3.50;;;;;;;15.64;73.53;102374.34;5131598;27;20491;-49
2021/06/14 01:09:01;;;;;;;11.40;4.50;;;;;;;15.65;73.38;102369.53;5131898;27;20047;-53
2021/06/14 01:11:38;;;;;;;6.47;3.92;;;;;;;15.65;73.49;102361.09;5132241;27;20548;-51
2021/06/14 01:14:16;;;;;;;7.38;3.97;;;;;;;15.61;73.69;102360.84;5131361;27;20074;-49
2021/06/14 01:16:51;;;;;;;6.85;3.10;;;;;;;15.58;73.65;102358.66;5121238;27;20050;-53
2021/06/14 01:19:42;;;;;;;6.22;3.15;;;;;;;15.58;73.42;102360.63;5131807;27;20112;-51
2021/06/14 01:22:30;;;;;;;6.80;3.15;;;;;;;15.53;73.52;102358.66;5117826;27;20047;-56
2021/06/14 01:25:06;;;;;;;7.00;3.45;;;;;;;15.44;73.72;102352.81;5131337;27;20050;-54
2021/06/14 01:27:44;;;;;;;6.55;3.58;;;;;;;15.36;73.99;102347.84;5138178;27;20049;-51
2021/06/14 01:30:22;;;;;;;5.32;3.15;;;;;;;15.28;74.18;102348.47;5137770;27;20073;-54
2021/06/14 01:32:52;;;;;;;;;;;;;;;15.07;74.17;102346.97;5139136;27;20050;-54
2021/06/14 01:35:28;;;;;;;6.70;3.08;;;;;;;15.02;74.74;102347.00;5138098;27;19919;-50
2021/06/14 01:38:01;;;;;;;6.97;3.70;;;;;;;14.99;74.89;102339.16;5138502;27;20070;-50
2021/06/14 01:40:32;;;;;;;5.60;3.42;;;;;;;14.92;74.99;102338.66;5138659;27;20043;-48
2021/06/14 01:43:04;;;;;;;6.35;3.63;;;;;;;14.86;75.21;102343.47;5138145;27;20035;-52
2021/06/14 01:45:35;;;;;;;6.20;3.13;;;;;;;14.79;75.54;102340.97;5138670;27;20055;-52
2021/06/14 01:48:05;;;;;;;5.57;3.92;;;;;;;14.74;75.87;102341.03;5137986;27;20080;-49
2021/06/14 01:50:34;;;;;;;7.28;3.47;;;;;;;14.68;75.70;102327.31;5121154;27;20047;-50
2021/06/14 01:53:03;;;;;;;5.82;3.22;;;;;;;14.64;75.90;102329.84;5138430;27;20051;-48
2021/06/14 01:55:34;;;;;;;4.13;2.78;;;;;;;14.60;75.97;102322.28;5130351;27;20415;-49
2021/06/14 01:58:08;;;;;;;5.97;3.00;;;;;;;14.57;76.06;102326.53;5138504;27;20122;-49
2021/06/14 02:00:54;;;;;;;5.90;2.97;;;;;;;14.50;76.18;102317.59;5138458;27;20039;-49
2021/06/14 02:03:45;;;;;;;7.50;3.70;;;;;;;14.46;76.52;102324.91;5122406;27;20063;-51
2021/06/14 02:06:34;;;;;;;6.72;3.90;;;;;;;14.44;76.53;102313.13;5137506;27;20283;-50
2021/06/14 02:09:08;;;;;;;9.07;4.07;;;;;;;14.44;76.66;102325.19;5126059;27;20043;-50
2021/06/14 02:11:38;;;;;;;6.10;3.10;;;;;;;14.43;76.63;102323.50;5137891;27;20043;-50
2021/06/14 02:14:10;;;;;;;5.60;3.60;;;;;;;14.41;76.68;102325.78;5124551;27;20061;-50
2021/06/14 02:16:39;;;;;;;6.70;3.70;;;;;;;14.36;76.94;102320.16;5121768;27;20075;-50
2021/06/14 02:19:08;;;;;;;6.18;3.47;;;;;;;14.32;76.90;102321.88;5138175;27;20073;-49
2021/06/14 02:21:36;;;;;;;7.70;4.38;;;;;;;14.27;76.80;102324.69;5138012;27;20059;-47
2021/06/14 02:24:05;;;;;;;6.88;4.30;;;;;;;14.22;77.40;102316.28;5137429;27;20069;-49
2021/06/14 02:26:33;;;;;;;6.95;4.00;;;;;;;14.18;77.51;102323.63;5122726;27;20073;-50
2021/06/14 02:29:01;;;;;;;7.82;4.38;;;;;;;14.14;77.44;102311.28;5136707;27;20059;-50
2021/06/14 02:31:31;;;;;;;7.40;4.25;;;;;;;14.09;77.68;102308.50;5137447;27;20427;-51
2021/06/14 02:33:59;;;;;;;6.07;3.63;;;;;;;14.05;77.88;102316.66;5118100;27;20039;-48
2021/06/14 02:36:27;;;;;;;8.85;4.93;;;;;;;14.01;78.01;102323.13;5134521;27;20045;-52
2021/06/14 02:38:59;;;;;;;9.23;5.03;;;;;;;13.97;78.23;102308.00;5131597;27;20043;-52
2021/06/14 02:41:29;;;;;;;7.35;4.50;;;;;;;13.91;78.63;102309.97;5117147;27;20423;-48
2021/06/14 02:43:57;;;;;;;7.95;4.47;;;;;;;13.88;78.65;102304.94;5128515;27;20035;-48
2021/06/14 02:46:26;;;;;;;6.22;3.88;;;;;;;13.84;78.89;102312.25;5117433;27;20047;-50
2021/06/14 02:48:56;;;;;;;7.65;4.40;;;;;;;13.81;79.12;102321.22;5134315;27;20047;-47
2021/06/14 02:51:25;;;;;;;6.63;4.03;;;;;;;13.78;79.32;102313.41;5130829;27;20074;-50
2021/06/14 02:54:04;;;;;;;5.72;4.07;;;;;;;13.76;78.97;102318.47;5122351;27;20051;-52
2021/06/14 02:56:38;;;;;;;6.65;4.60;;;;;;;13.72;79.48;102322.94;5131224;27;20069;-47
2021/06/14 02:59:09;;;;;;;8.85;4.30;;;;;;;13.71;79.63;102322.13;5133794;27;20423;-50
2021/06/14 03:01:41;;;;;;;7.65;4.65;;;;;;;13.70;79.90;102328.00;5133864;27;20126;-49
2021/06/14 03:04:15;;;;;;;8.73;5.32;;;;;;;13.67;79.88;102331.38;5122155;27;20792;-48
2021/06/14 03:06:45;;;;;;;7.70;5.17;;;;;;;13.61;80.03;102330.53;5133424;27;20073;-50
2021/06/14 03:09:13;;;;;;;7.00;4.63;;;;;;;13.60;80.18;102339.22;5122923;27;20384;-52
2021/06/14 03:11:43;;;;;;;6.43;4.30;;;;;;;13.58;80.39;102341.50;5133250;27;20051;-49
2021/06/14 03:14:17;;;;;;;10.90;5.63;;;;;;;13.55;80.54;102339.25;5111999;27;20134;-51
2021/06/14 03:16:48;;;;;;;11.17;6.17;;;;;;;13.52;80.73;102339.84;5118241;27;20046;-48
2021/06/14 03:19:21;;;;;;;10.50;6.72;;;;;;;13.50;80.92;102339.28;5133107;27;20045;-49
2021/06/14 03:21:50;;;;;;;8.40;4.95;;;;;;;13.50;81.24;102337.31;5120295;27;20100;-51
2021/06/14 03:24:24;;;;;;;15.88;7.07;;;;;;;13.52;81.43;102328.59;5123458;27;20071;-49
2021/06/14 03:26:53;;;;;;;12.55;6.93;;;;;;;13.57;81.51;102331.41;5129376;27;20433;-51
2021/06/14 03:29:24;;;;;;;11.70;5.47;;;;;;;13.60;81.54;102328.84;5124216;27;20051;-50
2021/06/14 03:31:53;;;;;;;8.57;5.05;;;;;;;13.63;81.47;102321.84;5128218;27;20088;-48
2021/06/14 03:34:24;;;;;;;11.00;5.35;;;;;;;13.65;81.47;102325.22;5132752;27;20109;-50
2021/06/14 03:36:53;;;;;;;8.38;4.95;;;;;;;13.66;81.49;102324.09;5133284;27;20495;-47
2021/06/14 03:39:22;;;;;;;7.47;4.68;;;;;;;13.67;81.34;102318.19;5133700;27;20078;-46
2021/06/14 03:41:51;;;;;;;12.88;6.30;;;;;;;13.70;81.27;102314.81;5132948;27;20073;-47
2021/06/14 03:44:21;;;;;;;8.32;4.60;;;;;;;13.70;81.32;102319.59;5133311;27;20058;-50
2021/06/14 03:46:49;;;;;;;8.75;4.25;;;;;;;13.73;81.30;102322.66;5133400;27;20041;-48
2021/06/14 03:49:19;;;;;;;9.32;5.13;;;;;;;13.74;81.28;102326.31;5132720;27;20120;-49
2021/06/14 03:51:57;;;;;;;12.55;6.65;;;;;;;13.73;81.22;102314.25;5122856;27;20045;-51
2021/06/14 03:54:25;;;;;;;6.82;4.40;;;;;;;13.74;81.25;102309.47;5132814;27;20069;-49
2021/06/14 03:56:53;;;;;;;7.45;4.28;;;;;;;13.77;81.40;102303.31;5121533;27;20042;-46
2021/06/14 03:59:21;;;;;;;10.70;6.18;;;;;;;13.79;81.30;102301.88;5133151;27;20108;-48
2021/06/14 04:01:53;;;;;;;11.30;5.38;;;;;;;13.85;81.57;102308.31;5132376;27;20106;-50
2021/06/14 04:04:36;;;;;;;12.65;6.50;;;;;;;13.92;81.45;102311.66;5133151;27;20130;-51
2021/06/14 04:07:20;;;;;;;10.18;5.88;;;;;;;14.00;81.67;102301.78;5115714;27;20054;-49
2021/06/14 04:09:48;;;;;;;8.98;5.50;;;;;;;14.08;81.55;102302.03;5132407;27;20461;-53
2021/06/14 04:12:16;;;;;;;10.20;5.40;;;;;;;14.14;81.43;102289.69;5132620;27;20110;-48
2021/06/14 04:14:45;;;;;;;12.25;6.55;;;;;;;14.19;81.45;102282.38;5133073;27;20568;-49
2021/06/14 04:17:13;;;;;;;8.73;5.50;;;;;;;14.23;81.34;102284.28;5132335;27;20043;-52
2021/06/14 04:19:41;;;;;;;12.90;6.65;;;;;;;14.29;81.44;102294.38;5132786;27;20047;-51
2021/06/14 04:22:09;;;;;;;11.35;6.20;;;;;;;14.34;81.72;102285.06;5132391;27;20105;-48
2021/06/14 04:24:38;;;;;;;10.52;5.63;;;;;;;14.40;81.38;102284.78;5116159;27;20075;-49
2021/06/14 04:27:06;;;;;;;14.05;6.60;;;;;;;14.46;81.40;102288.41;5133160;27;20042;-50
2021/06/14 04:29:34;;;;;;;9.77;6.03;;;;;;;14.51;81.31;102285.56;5132090;27;20068;-47
2021/06/14 04:32:03;;;;;;;12.50;6.38;;;;;;;14.56;81.18;102282.72;5132814;27;20076;-50
2021/06/14 04:34:31;;;;;;;8.85;5.93;;;;;;;14.59;81.23;102282.13;5132042;27;20047;-50
2021/06/14 04:37:00;;;;;;;9.73;6.10;;;;;;;14.62;80.82;102280.69;5131846;27;20534;-49
2021/06/14 04:39:28;;;;;;;10.90;5.18;;;;;;;14.66;80.63;102274.22;5131729;27;20070;-50
2021/06/14 04:41:58;;;;;;;11.13;5.63;;;;;;;14.67;80.43;102275.88;5132530;27;20096;-47
2021/06/14 04:44:26;;;;;;;8.55;5.15;;;;;;;14.68;80.36;102263.53;5131653;27;20078;-47
2021/06/14 04:46:54;;;;;;;9.10;5.22;;;;;;;14.72;80.39;102266.59;5132414;27;20419;-50
2021/06/14 04:49:21;;;;;;;9.35;5.63;;;;;;;14.75;80.19;102260.38;5132153;27;20120;-50
2021/06/14 04:51:49;;;;;;;7.95;4.38;;;;;;;14.79;80.14;102259.47;5131300;27;20111;-49
2021/06/14 04:54:17;;;;;;;9.00;5.32;;;;;;;14.84;79.98;102253.00;5132118;27;20503;-51
2021/06/14 04:56:45;;;;;;;6.22;4.63;;;;;;;14.90;79.74;102236.94;5131566;27;20078;-52
2021/06/14 04:59:14;;;;;;;9.52;5.30;;;;;;;14.95;79.52;102236.88;5131637;27;20199;-47
2021/06/14 05:01:43;;;;;;;8.43;5.20;;;;;;;15.00;79.36;102228.38;5132202;27;20089;-52
2021/06/14 05:04:11;;;;;;;8.73;5.10;;;;;;;15.04;79.21;102232.28;5131656;27;20051;-50
2021/06/14 05:06:39;;;;;;;10.98;6.25;;;;;;;15.09;79.01;102221.00;5131306;27;20654;-50
2021/06/14 05:09:07;;;;;;;6.88;4.10;;;;;;;15.14;78.76;102212.53;5132109;27;20039;-53
2021/06/14 05:11:35;;;;;;;10.23;5.78;;;;;;;15.18;78.92;102207.97;5123238;27;20157;-50
2021/06/14 05:14:02;;;;;;;10.30;5.63;;;;;;;15.24;78.83;102208.75;5125817;27;20075;-53
2021/06/14 05:16:32;;;;;;;14.13;6.80;;;;;;;15.29;79.00;102200.25;5131755;27;20050;-51
2021/06/14 05:19:00;;;;;;;10.27;6.63;;;;;;;15.35;79.07;102197.09;5131195;27;20051;-51
2021/06/14 05:21:29;;;;;;;12.20;6.50;;;;;;;15.42;79.07;102191.94;5131521;28;20054;-52
2021/06/14 05:23:56;;;;;;;8.60;5.72;;;;;;;15.48;79.07;102185.13;5132117;27;20103;-53
2021/06/14 05:26:25;;;;;;;11.35;7.10;;;;;;;15.57;79.13;102179.72;5131297;28;20043;-50
2021/06/14 05:28:53;;;;;;;13.10;6.72;;;;;;;15.67;79.02;102175.91;5120723;28;20051;-46
2021/06/14 05:31:21;;;;;;;10.02;6.25;;;;;;;15.77;78.80;102162.56;5131282;27;20134;-49
2021/06/14 05:33:50;;;;;;;10.63;5.55;;;;;;;15.91;78.32;102175.88;5131750;28;20111;-49
2021/06/14 05:36:18;;;;;;;11.35;6.05;;;;;;;16.01;78.02;102173.72;5131523;28;20051;-47
2021/06/14 05:38:46;;;;;;;10.82;5.78;;;;;;;16.14;77.78;102183.41;5131981;28;20111;-51
2021/06/14 05:41:14;;;;;;;9.50;5.65;;;;;;;16.31;77.28;102185.69;5131250;27;20088;-51
2021/06/14 05:43:41;;;;;;;12.73;6.40;;;;;;;16.48;76.79;102177.53;5114652;28;20039;-49
2021/06/14 05:46:09;;;;;;;11.40;6.65;;;;;;;16.69;76.33;102178.88;5130323;28;20062;-54
2021/06/14 05:48:37;;;;;;;11.23;5.90;;;;;;;16.92;75.72;102177.06;5130977;28;20093;-51
2021/06/14 05:51:07;;;;;;;11.23;5.45;;;;;;;17.18;74.90;102171.78;5131503;27;20430;-53
2021/06/14 05:53:34;;;;;;;9.77;5.28;;;;;;;17.42;74.25;102169.59;5131215;27;20078;-48
2021/06/14 05:56:02;;;;;;;7.78;5.38;;;;;;;17.70;73.15;102170.44;5130754;28;20455;-51
2021/06/14 05:58:30;;;;;;;8.73;5.20;;;;;;;17.96;72.04;102179.19;5131176;27;20105;-55
2021/06/14 06:00:58;;;;;;;8.95;5.25;;;;;;;18.19;70.90;102180.03;5130831;28;20067;-56
2021/06/14 06:03:26;;;;;;;10.05;5.05;;;;;;;18.41;69.51;102170.75;5131454;27;20067;-51
2021/06/14 06:05:54;;;;;;;9.30;5.10;;;;;;;18.63;68.35;102176.44;5131336;27;20063;-56
2021/06/14 06:08:23;;;;;;;8.77;4.78;;;;;;;18.83;66.96;102164.59;5131403;27;20051;-54
2021/06/14 06:10:51;;;;;;;8.18;4.63;;;;;;;19.01;65.64;102161.88;5135036;27;20047;-50
2021/06/14 06:13:19;;;;;;;10.55;5.10;;;;;;;19.16;64.94;102164.31;5135207;27;20100;-52
2021/06/14 06:15:47;;;;;;;15.90;5.60;;;;;;;19.34;64.53;102159.56;5134744;27;20043;-52
2021/06/14 06:18:15;;;;;;;11.27;4.65;;;;;;;19.52;63.73;102153.66;5128459;27;20043;-51
2021/06/14 06:20:43;;;;;;;10.98;5.25;;;;;;;19.68;62.25;102145.53;5134855;27;20407;-53
2021/06/14 06:23:11;;;;;;;9.25;4.95;;;;;;;19.81;61.97;102146.53;5132998;27;20126;-55
2021/06/14 06:25:40;;;;;;;7.05;4.38;;;;;;;20.02;62.09;102141.06;5134831;27;20483;-50
2021/06/14 06:28:08;;;;;;;12.23;5.40;;;;;;;20.22;61.33;102134.75;5134493;27;20047;-53
2021/06/14 06:30:37;;;;;;;9.70;5.50;;;;;;;20.38;60.54;102133.13;5134703;27;20154;-52
2021/06/14 06:33:06;;;;;;;12.98;5.45;;;;;;;20.51;59.84;102134.09;5134642;27;20499;-49
2021/06/14 06:35:34;;;;;;;10.65;5.00;;;;;;;20.67;59.18;102132.38;5134474;27;20043;-52
2021/06/14 06:38:02;;;;;;;8.88;5.00;;;;;;;20.86;58.50;102124.31;5130973;27;20072;-52
2021/06/14 06:40:31;;;;;;;10.60;4.57;;;;;;;21.02;58.14;102126.59;5134627;27;20458;-51
2021/06/14 06:43:00;;;;;;;11.38;4.65;;;;;;;21.16;57.80;102139.44;5134819;27;20467;-54
2021/06/14 06:45:28;;;;;;;12.82;4.80;;;;;;;21.34;57.18;102140.22;5134055;27;20538;-56
2021/06/14 06:47:56;;;;;;;12.65;4.25;;;;;;;21.46;56.93;102142.31;5134614;27;20096;-50
2021/06/14 06:50:25;;;;;;;10.65;3.97;;;;;;;21.60;56.30;102142.91;5133715;27;20050;-51
2021/06/14 06:52:53;;;;;;;10.15;4.05;;;;;;;21.70;55.58;102145.34;5133769;27;20054;-52
2021/06/14 06:55:21;;;;;;;12.60;3.78;;;;;;;21.83;54.79;102146.25;5134375;27;20474;-53
2021/06/14 06:57:48;;;;;;;8.05;4.07;;;;;;;21.94;54.08;102141.84;5133627;27;20042;-51
2021/06/14 07:00:20;;;;;;;7.72;3.53;;;;;;;22.11;54.36;102150.28;5134175;27;20039;-51
2021/06/14 07:02:48;;;;;;;9.93;3.70;;;;;;;22.27;53.13;102145.63;5134115;27;20452;-54
2021/06/14 07:05:34;;;;;;;9.45;3.85;;;;;;;22.39;52.65;102144.00;5126093;27;20047;-53
2021/06/14 07:08:02;;;;;;;9.07;3.58;;;;;;;22.55;51.95;102156.44;5117392;27;20605;-54
2021/06/14 07:10:31;;;;;;;9.18;3.70;;;;;;;22.66;50.35;102164.19;5134208;27;20039;-52
2021/06/14 07:12:59;;;;;;;8.32;3.97;;;;;;;22.70;49.08;102164.31;5133163;27;20039;-49
2021/06/14 07:15:28;;;;;;;8.05;3.50;;;;;;;22.64;48.69;102165.69;5133905;27;20046;-55
2021/06/14 07:17:56;;;;;;;9.30;3.72;;;;;;;22.70;48.06;102164.31;5133709;27;20718;-57
2021/06/14 07:20:24;;;;;;;11.05;4.47;;;;;;;22.57;48.69;102166.28;5132599;27;20043;-54
2021/06/14 07:22:52;;;;;;;10.65;4.05;;;;;;;22.56;49.24;102164.63;5133728;27;20055;-55
2021/06/14 07:25:20;;;;;;;10.15;4.10;;;;;;;22.56;50.01;102158.09;5126855;27;20047;-57
2021/06/14 07:27:48;;;;;;;11.68;4.20;;;;;;;22.53;50.37;102170.19;5122087;27;20096;-50
2021/06/14 07:30:32;;;;;;;12.82;4.68;;;;;;;22.45;50.32;102171.06;5133697;27;20042;-54
2021/06/14 07:33:01;;;;;;;11.20;3.92;;;;;;;22.40;51.32;102165.59;5119615;27;20050;-56
2021/06/14 07:35:34;;;;;;;11.63;4.10;;;;;;;22.50;50.96;102160.31;5133449;27;20073;-55
2021/06/14 07:38:02;;;;;;;8.23;3.90;;;;;;;22.64;50.47;102166.53;5133713;27;20039;-54
2021/06/14 07:40:31;;;;;;;11.27;4.72;;;;;;;22.73;50.16;102168.47;5132353;27;20431;-50
2021/06/14 07:42:58;;;;;;;10.23;4.40;;;;;;;22.69;49.61;102171.19;5133695;27;20397;-51
2021/06/14 07:45:26;;;;;;;10.05;4.32;;;;;;;22.58;49.55;102158.59;5133306;27;20093;-53
2021/06/14 07:47:55;;;;;;;11.55;4.53;;;;;;;22.52;49.45;102175.03;5131502;27;20074;-54
2021/06/14 07:50:23;;;;;;;9.70;4.38;;;;;;;22.45;49.71;102163.38;5133349;27;20130;-54
2021/06/14 07:52:53;;;;;;;13.38;5.18;;;;;;;22.44;49.82;102166.56;5133136;27;20084;-50
2021/06/14 07:55:23;;;;;;;9.52;4.65;;;;;;;22.26;50.19;102157.34;5132711;27;20092;-49
2021/06/14 07:57:50;;;;;;;10.57;5.38;;;;;;;22.25;50.41;102165.06;5133014;27;20046;-50
2021/06/14 08:00:19;;;;;;;11.25;5.00;;;;;;;22.27;50.77;102176.06;5133058;27;20074;-48
2021/06/14 08:02:48;;;;;;;11.52;5.40;;;;;;;22.24;51.15;102171.09;5132079;27;20050;-59
2021/06/14 08:05:17;;;;;;;11.75;5.70;;;;;;;22.17;51.28;102167.97;5132840;27;20146;-55
2021/06/14 08:07:46;;;;;;;11.18;5.50;;;;;;;22.24;51.85;102157.69;5132054;27;20553;-51
2021/06/14 08:10:16;;;;;;;10.23;6.05;;;;;;;22.36;50.99;102159.78;5132833;27;20095;-54
2021/06/14 08:12:46;;;;;;;12.15;5.40;;;;;;;22.37;51.27;102160.63;5132923;27;20511;-55
2021/06/14 08:15:16;;;;;;;12.90;5.63;;;;;;;22.40;51.32;102162.75;5132045;27;20500;-54
2021/06/14 08:17:44;;;;;;;13.70;6.00;;;;;;;22.51;51.49;102161.97;5132534;27;20047;-58
2021/06/14 08:20:21;;;;;;;11.40;6.20;;;;;;;22.57;51.63;102169.13;5132574;27;20047;-52
2021/06/14 08:25:38;;;;;;;11.65;5.90;;;;;;;22.65;52.01;102167.38;5132802;27;20039;-49
2021/06/14 08:28:06;;;;;;;12.07;6.82;;;;;;;22.77;51.58;102161.78;5132709;27;20126;-59
2021/06/14 08:30:35;;;;;;;13.30;6.90;;;;;;;22.83;50.99;102153.81;5131267;27;20093;-55
2021/06/14 08:33:03;;;;;;;18.92;7.05;;;;;;;22.90;50.62;102142.69;5131877;27;20096;-55
2021/06/14 08:35:32;;;;;;;10.40;5.75;;;;;;;23.01;50.68;102143.91;5120116;27;20104;-54
2021/06/14 08:38:02;;;;;;;10.80;6.10;;;;;;;23.02;49.95;102142.72;5132022;27;20043;-51
2021/06/14 08:40:33;;;;;;;13.02;6.85;;;;;;;22.97;49.89;102135.25;5132357;27;20047;-52
2021/06/14 08:43:03;;;;;;;13.35;6.80;;;;;;;23.00;49.22;102137.38;5131724;27;20096;-55
2021/06/14 08:45:34;;;;;;;12.23;6.10;;;;;;;23.00;48.79;102130.84;5132579;27;20065;-51
2021/06/14 08:48:02;;;;;;;16.17;7.07;;;;;;;23.14;48.45;102131.38;5131437;27;20046;-53
2021/06/14 08:50:31;;;;;;;9.80;6.00;;;;;;;23.23;48.15;102143.47;5131723;27;20051;-51
2021/06/14 08:52:59;;;;;;;10.95;6.28;;;;;;;23.28;47.59;102133.84;5131756;27;20141;-55
2021/06/14 08:55:29;;;;;;;12.35;6.35;;;;;;;23.32;48.73;102129.13;5132172;27;20051;-56
2021/06/14 08:57:58;;;;;;;10.95;6.15;;;;;;;23.35;48.01;102136.97;5131414;27;20047;-53
2021/06/14 09:00:30;;;;;;;10.75;5.43;;;;;;;23.34;48.26;102153.22;5132214;27;20043;-54
2021/06/14 09:02:58;;;;;;;13.68;6.03;;;;;;;23.22;48.31;102140.97;5131724;27;20082;-57
2021/06/14 09:05:27;;;;;;;14.65;6.50;;;;;;;23.23;48.35;102143.47;5131127;27;20475;-51
2021/06/14 09:07:57;;;;;;;12.63;6.40;;;;;;;23.19;49.13;102136.81;5131995;27;20510;-58
2021/06/14 09:10:31;;;;;;;9.77;5.93;;;;;;;23.24;49.20;102142.28;5131717;27;20126;-54
2021/06/14 09:13:10;;;;;;;14.70;7.18;;;;;;;23.19;48.38;102147.38;5131583;27;20125;-53
2021/06/14 09:15:39;;;;;;;12.90;6.93;;;;;;;23.20;48.69;102144.16;5131808;27;20047;-54
2021/06/14 09:18:18;;;;;;;10.00;6.10;;;;;;;23.28;48.27;102133.84;5130818;27;20118;-60
2021/06/14 09:21:04;;;;;;;14.65;6.57;;;;;;;23.40;47.96;102141.56;5131247;28;20047;-56
2021/06/14 09:23:46;;;;;;;12.00;6.05;;;;;;;23.17;46.85;102133.50;5131830;28;20181;-57
2021/06/14 09:26:27;;;;;;;13.50;7.13;;;;;;;23.20;48.02;102129.91;5130577;28;20096;-58
2021/06/14 09:28:58;;;;;;;10.85;5.63;;;;;;;23.25;48.71;102129.69;5132066;28;20104;-59
2021/06/14 09:31:29;;;;;;;15.52;7.07;;;;;;;23.49;47.83;102136.59;5131720;28;20100;-54
2021/06/14 09:33:58;;;;;;;14.77;7.50;;;;;;;23.48;47.63;102132.91;5131160;27;20050;-54
2021/06/14 09:36:26;;;;;;;13.98;7.07;;;;;;;23.39;47.45;102132.19;5131327;28;20092;-54
2021/06/14 09:38:54;;;;;;;11.93;6.68;;;;;;;23.36;48.38;102127.22;5131366;27;20551;-52
2021/06/14 09:41:22;;;;;;;13.27;6.32;;;;;;;23.57;48.73;102127.13;5130623;28;20055;-58
2021/06/14 09:43:52;;;;;;;12.57;6.90;;;;;;;23.70;48.13;102129.59;5126248;27;20552;-53
2021/06/14 09:46:25;;;;;;;13.23;6.47;;;;;;;23.82;48.21;102130.78;5131031;27;20086;-54
2021/06/14 09:48:53;;;;;;;12.35;6.85;;;;;;;23.96;47.50;102136.94;5125445;27;20075;-49
2021/06/14 09:51:21;;;;;;;15.48;7.50;;;;;;;24.05;48.05;102138.44;5135369;27;20118;-53
2021/06/14 09:53:51;;;;;;;13.00;7.57;;;;;;;23.98;47.18;102128.88;5134599;27;20130;-51
2021/06/14 09:56:21;;;;;;;13.50;6.97;;;;;;;23.88;47.67;102133.03;5135548;27;20463;-58
2021/06/14 09:58:52;;;;;;;13.77;7.57;;;;;;;24.06;47.04;102139.28;5135328;27;20089;-54
2021/06/14 10:01:24;;;;;;;;;;;;;;;23.97;45.62;102138.59;5135124;27;20457;-58
2021/06/14 10:03:53;;;;;;;11.18;6.63;;;;;;;24.16;47.48;102132.25;5135090;27;19919;-56
2021/06/14 10:06:30;;;;;;;14.38;7.38;;;;;;;24.32;46.59;102141.75;5135024;27;20068;-60
2021/06/14 10:08:58;;;;;;;10.45;6.63;;;;;;;24.32;46.89;102124.63;5134716;27;20046;-55
2021/06/14 10:11:33;;;;;;;15.55;8.13;;;;;;;24.37;47.08;102130.06;5124869;27;20051;-59
2021/06/14 10:14:11;;;;;;;12.43;7.25;;;;;;;24.52;45.73;102125.59;5135277;27;20047;-60
2021/06/14 10:16:41;;;;;;;11.45;7.20;;;;;;;24.57;46.66;102125.34;5124728;27;20138;-56
2021/06/14 10:19:11;;;;;;;12.63;7.78;;;;;;;24.58;47.29;102132.72;5135101;27;20108;-53
2021/06/14 10:21:40;;;;;;;15.98;8.38;;;;;;;24.38;46.92;102128.84;5134555;27;20051;-53
2021/06/14 10:24:11;;;;;;;13.52;9.00;;;;;;;24.23;46.73;102130.44;5135231;27;20078;-52
2021/06/14 10:26:43;;;;;;;15.02;8.65;;;;;;;24.24;47.65;102134.97;5134816;27;20126;-52
2021/06/14 10:29:14;;;;;;;15.63;8.63;;;;;;;24.38;47.41;102128.84;5134108;27;20043;-58
2021/06/14 10:31:43;;;;;;;;;;;;;;;24.08;46.26;102134.03;5131598;27;20136;-56
2021/06/14 10:34:12;;;;;;;15.23;8.85;;;;;;;24.19;48.16;102125.81;5135019;27;19926;-55
2021/06/14 10:36:45;;;;;;;14.90;8.63;;;;;;;24.41;47.76;102128.13;5133540;27;20479;-57
2021/06/14 10:39:14;;;;;;;15.20;9.50;;;;;;;24.44;47.87;102129.44;5134713;27;20039;-55
2021/06/14 10:41:47;;;;;;;15.43;9.75;;;;;;;24.36;46.99;102123.53;5134300;27;20043;-59
2021/06/14 10:44:16;;;;;;;13.55;9.52;;;;;;;24.11;47.15;102123.94;5113058;27;20102;-56
2021/06/14 10:46:46;;;;;;;17.23;10.30;;;;;;;23.98;47.28;102121.09;5132071;27;20112;-57
2021/06/14 10:49:16;;;;;;;16.30;9.77;;;;;;;23.82;48.51;102107.97;5134347;27;20518;-51
2021/06/14 10:51:45;;;;;;;17.50;9.93;;;;;;;23.67;48.61;102115.25;5134115;27;20035;-51
2021/06/14 10:54:16;;;;;;;14.30;9.88;;;;;;;23.49;49.88;102114.63;5133098;27;20043;-53
2021/06/14 10:56:47;;;;;;;15.60;9.38;;;;;;;23.62;49.60;102118.31;5133705;27;20043;-54
2021/06/14 10:59:17;;;;;;;17.15;10.55;;;;;;;23.75;48.95;102119.16;5134364;27;20043;-56
2021/06/14 11:01:48;;;;;;;18.10;9.25;;;;;;;23.74;49.41;102115.47;5134478;27;20047;-58
2021/06/14 11:04:26;;;;;;;15.20;9.90;;;;;;;23.86;48.91;102121.16;5133549;27;20069;-56
2021/06/14 11:06:56;;;;;;;18.05;9.95;;;;;;;24.01;49.45;102123.25;5133820;27;20054;-54
2021/06/14 11:09:25;;;;;;;16.73;9.98;;;;;;;24.22;48.73;102131.63;5134135;27;20131;-56
2021/06/14 11:11:55;;;;;;;15.00;9.20;;;;;;;24.42;49.06;102128.97;5133503;27;20499;-57
2021/06/14 11:14:33;;;;;;;19.35;10.85;;;;;;;24.49;48.08;102115.75;5134296;27;20047;-54
2021/06/14 11:17:14;;;;;;;13.98;10.85;;;;;;;24.56;47.24;102115.97;5133892;27;20708;-51
2021/06/14 11:19:44;;;;;;;18.75;11.15;;;;;;;24.67;47.57;102121.94;5132520;27;20883;-55
2021/06/14 11:22:12;;;;;;;16.88;11.48;;;;;;;24.71;47.27;102122.88;5133508;27;20442;-57
2021/06/14 11:24:43;;;;;;;18.60;11.23;;;;;;;24.60;47.32;102124.59;5133396;27;20039;-52
2021/06/14 11:27:12;;;;;;;19.77;11.43;;;;;;;24.40;47.00;102120.75;5133848;27;20066;-52
2021/06/14 11:29:47;;;;;;;17.13;10.75;;;;;;;24.22;47.94;102111.66;5133876;27;20062;-52
2021/06/14 11:32:21;;;;;;;15.13;9.90;;;;;;;24.00;47.99;102113.03;5133485;27;20054;-55
2021/06/14 11:34:52;;;;;;;17.70;12.73;;;;;;;23.94;48.42;102110.81;5133784;27;20127;-54
2021/06/14 11:37:20;;;;;;;17.60;11.55;;;;;;;23.96;47.52;102102.72;5133309;27;20047;-55
2021/06/14 11:39:59;;;;;;;17.30;11.50;;;;;;;23.94;46.65;102107.94;5121740;27;20071;-53